Time;durP1;ratioP1;P1;durP2;ratioP2;P2;SDS_P1;SDS_P2;PMS_P1;PMS_P2;Temp;Humidity;BMP_temperature;BMP_pressure;BME280_temperature;BME280_humidity;BME280_pressure;Samples;Min_cycle;Max_cycle;Signal;HPM_P1;HPM_P2
2021/12/27 00:00:19;;;;;;;29.10;15.40;;;8.90;90.50;;;8.93;61.62;94527.22;4997231;28;20450;-58
2021/12/27 00:02:49;;;;;;;23.33;15.00;;;8.90;90.50;;;8.92;61.62;94517.72;4998938;28;21014;-59
2021/12/27 00:05:16;;;;;;;19.40;13.33;;;8.90;90.40;;;8.93;60.92;94535.09;4998183;28;20457;-61
2021/12/27 00:07:48;;;;;;;20.97;12.50;;;8.90;90.40;;;8.91;61.40;94530.97;4998068;28;20481;-59
2021/12/27 00:10:15;;;;;;;27.00;13.30;;;8.90;90.30;;;8.90;61.69;94521.44;4996559;28;20447;-58
2021/12/27 00:12:42;;;;;;;16.90;11.57;;;8.90;90.50;;;8.91;61.31;94523.91;5002021;28;20489;-59
2021/12/27 00:15:10;;;;;;;23.70;12.43;;;8.90;90.50;;;8.92;61.49;94530.00;5002612;28;20450;-58
2021/12/27 00:17:39;;;;;;;20.13;13.37;;;8.90;90.40;;;8.92;61.23;94525.59;5002838;28;20548;-58
2021/12/27 00:20:09;;;;;;;19.83;12.80;;;8.90;90.50;;;8.92;61.40;94522.97;5003630;28;20872;-59
2021/12/27 00:22:36;;;;;;;22.30;13.50;;;8.90;90.50;;;8.94;61.33;94521.03;5000554;28;20482;-59
2021/12/27 00:25:04;;;;;;;25.83;12.77;;;8.90;90.60;;;8.96;61.38;94529.56;4993464;28;20466;-60
2021/12/27 00:27:34;;;;;;;30.23;11.57;;;8.90;91.00;;;8.96;61.39;94524.31;4995211;28;20478;-57
2021/12/27 00:30:01;;;;;;;22.13;12.00;;;9.00;90.40;;;8.96;61.12;94518.25;5001937;28;20453;-58
2021/12/27 00:32:29;;;;;;;22.83;13.47;;;9.00;90.40;;;8.96;61.75;94513.00;4994398;28;20525;-57
2021/12/27 00:34:56;;;;;;;21.00;12.30;;;9.00;90.40;;;8.96;61.77;94521.69;5000726;28;20520;-57
2021/12/27 00:37:25;;;;;;;20.27;12.97;;;8.90;90.50;;;8.96;61.14;94519.09;5001876;28;20481;-60
2021/12/27 00:39:52;;;;;;;19.83;12.43;;;8.90;90.50;;;8.96;61.27;94516.47;5000932;28;20462;-60
2021/12/27 00:42:19;;;;;;;24.87;13.50;;;9.00;90.50;;;8.96;61.16;94519.09;5002670;28;20866;-58
2021/12/27 00:44:46;;;;;;;18.53;12.30;;;9.00;90.50;;;8.94;61.23;94526.28;5001009;28;20985;-58
2021/12/27 00:47:14;;;;;;;22.60;12.83;;;9.00;90.50;;;8.93;61.01;94529.03;4999829;28;20483;-60
2021/12/27 00:49:41;;;;;;;19.97;11.47;;;8.90;90.30;;;8.91;61.54;94526.53;4997814;28;20459;-56
2021/12/27 00:52:08;;;;;;;21.10;12.87;;;8.90;90.60;;;8.88;61.63;94528.63;5003612;28;20780;-56
2021/12/27 00:54:37;;;;;;;23.63;13.03;;;8.90;90.50;;;8.83;61.49;94533.44;5005803;28;20875;-58
2021/12/27 00:57:05;;;;;;;21.70;13.13;;;8.80;90.60;;;8.81;61.54;94536.19;5006773;28;20466;-60
2021/12/27 00:59:32;;;;;;;26.13;14.10;;;8.80;90.80;;;8.83;61.67;94538.69;5005949;28;20465;-60
2021/12/27 01:01:59;;;;;;;20.07;12.03;;;8.80;90.80;;;8.85;61.98;94545.44;5004058;28;20500;-59
2021/12/27 01:04:27;;;;;;;23.43;13.67;;;8.80;90.90;;;8.86;61.76;94530.53;5005441;28;20466;-59
2021/12/27 01:06:54;;;;;;;18.40;12.00;;;8.90;90.90;;;8.88;61.74;94532.06;5006890;28;20477;-59
2021/12/27 01:09:31;;;;;;;26.73;12.97;;;8.80;90.70;;;8.90;61.40;94524.88;5006354;28;20466;-59
2021/12/27 01:12:22;;;;;;;21.07;12.50;;;8.90;90.70;;;8.92;61.40;94541.31;4998809;28;20580;-59
2021/12/27 01:15:07;;;;;;;20.00;13.13;;;8.90;90.60;;;8.90;61.39;94535.38;5006739;28;20456;-58
2021/12/27 01:17:34;;;;;;;16.73;12.20;;;8.90;90.70;;;8.91;61.73;94530.97;4998213;28;20476;-59
2021/12/27 01:20:01;;;;;;;21.73;12.10;;;8.90;90.60;;;8.90;61.94;94527.50;4998489;28;21035;-59
2021/12/27 01:22:29;;;;;;;21.00;12.30;;;8.90;90.70;;;8.93;61.60;94519.34;5001931;28;20875;-59
2021/12/27 01:24:56;;;;;;;24.73;11.90;;;8.90;90.80;;;8.95;61.72;94522.69;5004602;28;20469;-59
2021/12/27 01:27:25;;;;;;;21.40;12.10;;;9.00;90.70;;;8.99;61.44;94522.41;5003125;28;21044;-58
2021/12/27 01:29:52;;;;;;;19.63;11.43;;;9.00;90.70;;;9.01;61.66;94509.97;5007118;28;20520;-57
2021/12/27 01:32:19;;;;;;;22.70;13.33;;;9.00;90.80;;;9.04;61.22;94513.13;5004058;28;20498;-57
2021/12/27 01:34:47;;;;;;;23.90;14.20;;;9.00;90.70;;;9.05;61.66;94514.00;5004976;28;20458;-59
2021/12/27 01:37:17;;;;;;;22.53;12.90;;;9.00;90.60;;;9.07;61.23;94507.63;4999021;28;20936;-57
2021/12/27 01:39:45;;;;;;;21.83;11.00;;;9.10;90.60;;;9.09;61.50;94503.06;4995007;28;20446;-58
2021/12/27 01:42:12;;;;;;;17.70;10.93;;;9.10;90.50;;;9.10;61.12;94501.28;5002720;28;20484;-57
2021/12/27 01:44:41;;;;;;;25.37;12.93;;;9.10;90.50;;;9.12;61.13;94501.94;5002223;28;20996;-57
2021/12/27 01:47:09;;;;;;;20.63;11.33;;;9.10;90.40;;;9.14;60.82;94500.03;5002961;28;21076;-59
2021/12/27 01:49:37;;;;;;;17.30;10.47;;;9.10;90.30;;;9.14;60.78;94495.59;5005755;28;20461;-59
2021/12/27 01:52:05;;;;;;;14.47;9.77;;;9.10;90.30;;;9.17;60.83;94507.63;5007420;28;21049;-56
2021/12/27 01:54:32;;;;;;;24.17;10.83;;;9.10;90.30;;;9.18;61.14;94505.81;5003667;28;20453;-57
2021/12/27 01:57:00;;;;;;;17.70;11.27;;;9.20;90.30;;;9.19;60.66;94503.06;5001516;28;20917;-56
2021/12/27 01:59:27;;;;;;;16.60;11.23;;;9.20;90.50;;;9.20;61.26;94488.97;5000216;28;20450;-57
2021/12/27 02:01:56;;;;;;;19.13;11.97;;;9.20;90.20;;;9.21;60.77;94485.38;5000486;28;20846;-58
2021/12/27 02:04:23;;;;;;;20.03;11.80;;;9.20;90.20;;;9.21;60.63;94493.25;4998524;28;20458;-58
2021/12/27 02:06:50;;;;;;;21.90;11.47;;;9.20;90.20;;;9.22;60.85;94483.59;4999884;28;20891;-58
2021/12/27 02:09:21;;;;;;;16.93;10.70;;;9.20;90.20;;;9.23;60.80;94488.66;5006163;28;20478;-58
2021/12/27 02:11:50;;;;;;;20.17;10.37;;;9.20;90.30;;;9.24;61.06;94490.34;5003000;28;20947;-57
2021/12/27 02:14:17;;;;;;;18.50;11.70;;;9.20;90.30;;;9.26;60.93;94477.88;5004505;28;20532;-60
2021/12/27 02:16:45;;;;;;;23.90;11.53;;;9.30;90.30;;;9.25;60.98;94499.03;5000886;28;20485;-59
2021/12/27 02:19:13;;;;;;;17.47;10.43;;;9.20;90.10;;;9.19;61.19;94489.94;5003960;28;20453;-59
2021/12/27 02:21:42;;;;;;;19.70;11.60;;;9.20;90.20;;;9.14;61.05;94484.28;5005655;28;20553;-59
2021/12/27 02:24:10;;;;;;;14.17;10.97;;;9.10;90.30;;;9.11;61.16;94469.66;4999663;28;20901;-57
2021/12/27 02:26:37;;;;;;;19.67;12.63;;;9.10;90.30;;;9.10;61.71;94467.97;4994600;28;20848;-57
2021/12/27 02:29:05;;;;;;;20.60;11.90;;;9.10;90.50;;;9.10;61.46;94472.41;4994961;28;20810;-59
2021/12/27 02:31:37;;;;;;;23.27;12.90;;;9.10;90.60;;;9.08;61.29;94469.13;5002214;28;20492;-59
2021/12/27 02:34:05;;;;;;;19.67;12.03;;;9.10;90.40;;;9.06;61.66;94482.38;5006729;28;20925;-57
2021/12/27 02:36:33;;;;;;;17.20;12.07;;;9.10;90.50;;;9.05;61.41;94479.88;5004863;28;20541;-57
2021/12/27 02:39:02;;;;;;;24.27;12.67;;;9.10;90.50;;;9.04;61.79;94472.97;5005084;28;20484;-59
2021/12/27 02:41:29;;;;;;;25.23;13.10;;;9.00;90.50;;;9.06;61.71;94485.00;4998510;28;20478;-57
2021/12/27 02:43:56;;;;;;;24.03;13.13;;;9.10;90.80;;;9.09;61.93;94468.13;4999531;28;20456;-59
2021/12/27 02:46:24;;;;;;;25.90;12.60;;;9.10;90.80;;;9.07;61.65;94464.81;5000087;28;20462;-57
2021/12/27 02:48:51;;;;;;;22.90;13.67;;;9.10;90.70;;;9.06;61.82;94478.91;5001185;28;20462;-58
2021/12/27 02:51:19;;;;;;;22.20;13.73;;;9.00;90.90;;;9.03;61.90;94458.19;5002525;28;20481;-58
2021/12/27 02:53:46;;;;;;;24.60;13.13;;;9.10;90.70;;;9.03;61.67;94456.41;4999595;28;20482;-58
2021/12/27 02:56:15;;;;;;;20.27;12.57;;;9.00;90.80;;;9.05;61.58;94458.91;4997329;28;20570;-58
2021/12/27 02:58:43;;;;;;;19.23;13.77;;;9.00;90.90;;;9.05;62.38;94445.78;5004072;28;20887;-57
2021/12/27 03:01:12;;;;;;;22.00;13.33;;;9.00;91.00;;;9.05;61.71;94448.41;5004705;28;20470;-57
2021/12/27 03:03:39;;;;;;;20.00;13.40;;;9.00;90.90;;;9.04;61.76;94452.81;5003594;28;20465;-56
2021/12/27 03:06:07;;;;;;;25.47;12.87;;;9.00;90.90;;;9.06;62.11;94464.00;5002658;28;21001;-58
2021/12/27 03:08:35;;;;;;;21.50;11.80;;;9.00;90.90;;;9.07;62.40;94449.09;5007350;28;20845;-57
2021/12/27 03:11:03;;;;;;;23.20;12.90;;;9.00;91.00;;;9.06;62.06;94456.13;5001584;28;20497;-58
2021/12/27 03:13:34;;;;;;;20.23;12.50;;;9.00;91.10;;;9.03;61.86;94450.31;5002470;28;20486;-58
2021/12/27 03:16:03;;;;;;;16.80;12.40;;;9.00;90.80;;;9.01;61.69;94457.50;4994544;28;20478;-56
2021/12/27 03:18:32;;;;;;;20.50;13.37;;;9.00;90.80;;;9.00;62.09;94442.72;4996008;28;20449;-58
2021/12/27 03:21:00;;;;;;;19.33;13.70;;;9.00;90.90;;;8.98;61.70;94448.13;5001743;28;20483;-57
2021/12/27 03:23:27;;;;;;;20.03;12.83;;;9.00;90.90;;;8.95;61.89;94449.25;5004259;28;20907;-59
2021/12/27 03:25:54;;;;;;;20.13;12.67;;;9.00;91.00;;;8.94;62.52;94438.91;5003899;28;20466;-59
2021/12/27 03:28:22;;;;;;;23.13;13.90;;;9.00;91.10;;;8.95;62.62;94444.00;5003117;28;20600;-58
2021/12/27 03:30:51;;;;;;;21.67;13.50;;;9.00;91.20;;;8.96;62.12;94439.56;4998593;28;20477;-59
2021/12/27 03:33:20;;;;;;;27.77;15.43;;;9.00;91.20;;;8.97;62.47;94446.47;4998799;28;20490;-59
2021/12/27 03:35:58;;;;;;;34.87;17.63;;;9.00;91.40;;;8.96;62.33;94450.88;4997491;28;20608;-56
2021/12/27 03:38:26;;;;;;;23.50;15.50;;;9.00;91.20;;;8.93;62.05;94453.78;4995393;28;20442;-57
2021/12/27 03:40:53;;;;;;;27.60;14.13;;;8.90;91.20;;;8.94;62.59;94452.81;5008290;28;20454;-58
2021/12/27 03:43:20;;;;;;;29.73;17.73;;;8.90;91.30;;;8.94;62.77;94447.59;4998817;28;20529;-55
2021/12/27 03:45:48;;;;;;;30.07;17.80;;;8.90;91.40;;;8.93;62.52;94440.66;5001897;28;20458;-57
2021/12/27 03:48:17;;;;;;;30.00;18.73;;;9.00;91.40;;;8.94;62.90;94442.34;5004477;28;20476;-57
2021/12/27 03:50:44;;;;;;;32.20;18.13;;;8.90;91.70;;;8.94;62.64;94431.84;5002938;28;20473;-65
2021/12/27 03:53:12;;;;;;;35.93;18.93;;;9.00;91.60;;;8.95;62.58;94425.66;5003331;28;20560;-59
2021/12/27 03:55:39;;;;;;;28.10;18.97;;;8.90;91.60;;;8.95;62.86;94432.66;5002608;28;20464;-58
2021/12/27 03:58:09;;;;;;;30.40;17.37;;;8.90;91.80;;;8.95;62.20;94432.66;5001030;28;20462;-59
2021/12/27 04:00:59;;;;;;;27.87;16.73;;;9.00;91.40;;;8.96;62.53;94426.47;4997180;28;20464;-58
2021/12/27 04:03:28;;;;;;;26.57;17.87;;;8.90;91.40;;;8.96;62.67;94414.16;4993054;28;20470;-56
2021/12/27 04:05:55;;;;;;;30.70;17.50;;;9.00;91.40;;;8.96;62.66;94424.66;4995694;28;20459;-59
2021/12/27 04:08:23;;;;;;;30.73;16.70;;;9.00;91.40;;;8.95;62.57;94433.50;4998367;28;20550;-58
2021/12/27 04:10:50;;;;;;;29.60;15.77;;;9.00;91.30;;;8.92;62.71;94436.41;5001261;28;20890;-60
2021/12/27 04:13:21;;;;;;;28.23;16.80;;;8.90;91.30;;;8.89;62.66;94434.06;4999402;28;21083;-57
2021/12/27 04:15:48;;;;;;;26.10;15.63;;;8.90;91.40;;;8.93;62.74;94439.84;5001567;28;21004;-58
2021/12/27 04:18:16;;;;;;;26.67;16.07;;;8.90;91.60;;;8.94;62.54;94447.59;5000188;28;20454;-58
2021/12/27 04:20:45;;;;;;;29.23;17.30;;;9.00;91.50;;;8.94;62.75;94437.09;4998828;28;20467;-56
2021/12/27 04:23:12;;;;;;;27.10;16.53;;;8.90;91.50;;;8.95;62.76;94436.13;5000249;28;21037;-59
2021/12/27 04:25:39;;;;;;;29.90;17.07;;;9.00;91.70;;;8.94;62.88;94444.16;4995326;28;20470;-58
2021/12/27 04:28:07;;;;;;;28.53;16.50;;;9.00;91.60;;;8.93;62.57;94451.16;4997080;28;20568;-58
2021/12/27 04:30:34;;;;;;;19.50;13.53;;;8.90;91.60;;;8.93;62.80;94437.22;4997180;28;20970;-61
2021/12/27 04:33:02;;;;;;;23.00;15.00;;;8.90;91.50;;;8.92;62.91;94457.41;5001928;28;20489;-58
2021/12/27 04:35:29;;;;;;;26.23;13.10;;;8.90;91.60;;;8.94;62.53;94447.59;5001627;28;20458;-57
2021/12/27 04:37:58;;;;;;;19.10;12.70;;;9.00;91.60;;;8.97;62.97;94452.56;5000983;28;20537;-58
2021/12/27 04:40:26;;;;;;;22.23;12.70;;;9.00;91.60;;;8.99;62.46;94449.78;5002423;28;20461;-60
2021/12/27 04:42:55;;;;;;;22.97;13.87;;;9.00;91.60;;;9.01;62.93;94442.59;4998884;28;20462;-58
2021/12/27 04:45:23;;;;;;;20.67;13.20;;;9.00;91.70;;;9.01;62.55;94441.78;4996566;28;20858;-58
2021/12/27 04:47:50;;;;;;;22.27;12.90;;;9.00;91.50;;;8.99;62.73;94446.34;4999829;28;20465;-57
2021/12/27 04:50:17;;;;;;;22.57;12.93;;;9.00;91.40;;;8.97;62.47;94442.06;4998046;28;20487;-60
2021/12/27 04:52:47;;;;;;;17.67;10.60;;;9.00;91.50;;;8.99;62.25;94443.72;4997939;28;20529;-57
2021/12/27 04:55:15;;;;;;;23.07;10.00;;;9.00;91.40;;;8.97;62.41;94452.56;4999837;28;20482;-59
2021/12/27 04:57:42;;;;;;;21.63;11.83;;;9.00;91.30;;;8.99;62.76;94452.41;5001288;28;20467;-57
2021/12/27 05:00:11;;;;;;;17.90;11.07;;;9.00;91.50;;;9.01;62.44;94452.28;5002794;28;20460;-59
2021/12/27 05:02:38;;;;;;;18.20;9.40;;;9.00;91.40;;;9.02;62.63;94449.50;5003296;28;20485;-59
2021/12/27 05:05:06;;;;;;;17.73;9.60;;;9.00;91.40;;;9.03;62.86;94445.94;4998212;28;20874;-58
2021/12/27 05:07:34;;;;;;;17.00;8.93;;;9.00;91.50;;;9.04;62.37;94444.94;5003724;28;20478;-59
2021/12/27 05:10:01;;;;;;;18.33;10.10;;;9.00;91.30;;;9.06;62.28;94442.16;4999398;28;20551;-56
2021/12/27 05:12:30;;;;;;;18.60;9.97;;;9.00;91.40;;;9.04;62.48;94446.75;5002114;28;20651;-58
2021/12/27 05:14:57;;;;;;;21.30;11.50;;;9.00;91.40;;;9.03;62.59;94455.56;4995712;28;20954;-60
2021/12/27 05:17:25;;;;;;;20.57;11.20;;;9.00;91.30;;;9.02;62.49;94453.94;4995452;28;20870;-58
2021/12/27 05:19:52;;;;;;;18.77;11.77;;;9.00;91.40;;;9.00;62.64;94458.47;4996718;28;20456;-59
2021/12/27 05:22:19;;;;;;;16.93;11.27;;;9.00;91.40;;;9.01;62.71;94449.66;5000700;28;20482;-60
2021/12/27 05:24:46;;;;;;;22.73;10.70;;;9.00;91.30;;;9.00;62.45;94453.22;5000657;28;20466;-57
2021/12/27 05:27:14;;;;;;;15.93;9.80;;;9.00;91.40;;;8.98;62.40;94453.38;5003528;28;20481;-57
2021/12/27 05:29:42;;;;;;;16.00;11.00;;;9.00;91.40;;;8.99;62.35;94456.84;5000075;28;20458;-60
2021/12/27 05:32:10;;;;;;;17.10;11.13;;;9.00;91.40;;;8.99;62.58;94454.22;4998314;28;20915;-57
2021/12/27 05:34:37;;;;;;;18.80;10.50;;;9.00;91.40;;;9.00;62.42;94450.59;5000207;28;20454;-57
2021/12/27 05:37:05;;;;;;;14.27;10.30;;;9.00;91.40;;;9.00;62.16;94445.34;4997497;28;20477;-59
2021/12/27 05:39:32;;;;;;;19.03;10.57;;;9.00;91.40;;;9.00;63.21;94450.59;4997558;28;20459;-57
2021/12/27 05:42:00;;;;;;;12.47;8.30;;;9.00;91.60;;;9.01;62.47;94455.72;4998168;28;20485;-60
2021/12/27 05:44:27;;;;;;;16.60;9.50;;;9.00;91.50;;;9.04;62.68;94463.28;5005650;28;20537;-60
2021/12/27 05:46:56;;;;;;;18.30;8.37;;;9.10;91.60;;;9.08;62.58;94451.56;5001678;28;20974;-57
2021/12/27 05:49:23;;;;;;;21.60;11.93;;;9.00;91.60;;;9.09;62.63;94457.63;5007019;28;20544;-58
2021/12/27 05:51:52;;;;;;;17.23;10.00;;;9.10;91.60;;;9.09;62.74;94457.63;5004240;28;20973;-57
2021/12/27 05:54:20;;;;;;;14.17;9.63;;;9.10;91.60;;;9.10;62.92;94454.88;5004828;28;20489;-59
2021/12/27 05:56:48;;;;;;;17.60;10.77;;;9.10;91.70;;;9.14;62.50;94453.63;5001764;28;20968;-59
2021/12/27 05:59:16;;;;;;;15.53;10.50;;;9.10;91.70;;;9.17;62.44;94447.28;4999987;28;20446;-57
2021/12/27 06:01:44;;;;;;;16.07;9.73;;;9.10;91.60;;;9.18;62.85;94446.28;5001354;28;20465;-60
2021/12/27 06:04:12;;;;;;;16.70;10.00;;;9.20;91.60;;;9.20;62.77;94446.16;4994571;28;20451;-59
2021/12/27 06:06:40;;;;;;;12.97;8.63;;;9.20;91.60;;;9.21;62.58;94446.00;5003666;28;20520;-59
2021/12/27 06:09:07;;;;;;;19.17;9.57;;;9.20;91.40;;;9.21;62.37;94435.50;5004654;28;21001;-59
2021/12/27 06:11:34;;;;;;;14.07;8.90;;;9.20;91.30;;;9.20;62.56;94435.66;5001822;28;20993;-59
2021/12/27 06:14:02;;;;;;;22.50;13.00;;;9.20;91.40;;;9.19;62.25;94450.56;5006302;28;20547;-58
2021/12/27 06:16:29;;;;;;;17.87;10.90;;;9.20;91.40;;;9.20;62.62;94452.25;5004170;28;20481;-59
2021/12/27 06:18:57;;;;;;;11.30;8.50;;;9.20;91.50;;;9.22;62.34;94446.84;5005576;28;20450;-59
2021/12/27 06:21:25;;;;;;;18.10;8.50;;;9.20;91.40;;;9.23;62.53;94445.88;5001077;28;20473;-57
2021/12/27 06:23:53;;;;;;;18.77;10.63;;;9.20;91.40;;;9.23;62.63;94436.19;4999954;28;20451;-58
2021/12/27 06:26:20;;;;;;;17.90;10.30;;;9.20;91.40;;;9.21;62.32;94438.13;4998477;28;20897;-57
2021/12/27 06:28:47;;;;;;;17.53;11.00;;;9.20;91.70;;;9.21;62.55;94432.06;5001492;28;20500;-59
2021/12/27 06:31:14;;;;;;;12.07;8.83;;;9.20;91.40;;;9.20;62.37;94436.50;5004006;28;20492;-58
2021/12/27 06:33:42;;;;;;;15.73;9.20;;;9.20;91.40;;;9.23;62.28;94433.56;5005954;28;20485;-57
2021/12/27 06:36:09;;;;;;;14.30;8.70;;;9.20;91.50;;;9.27;62.42;94432.31;5004097;28;20470;-60
2021/12/27 06:38:38;;;;;;;24.93;8.93;;;9.30;91.50;;;9.28;62.52;94430.50;5003682;28;20450;-60
2021/12/27 06:41:05;;;;;;;12.87;8.40;;;9.30;91.50;;;9.30;62.28;94437.28;5004837;28;20476;-59
2021/12/27 06:43:32;;;;;;;11.47;7.60;;;9.30;91.50;;;9.38;62.44;94439.19;5000253;28;20464;-59
2021/12/27 06:46:00;;;;;;;16.13;9.07;;;9.40;91.60;;;9.57;62.33;94448.78;5005080;28;20477;-58
2021/12/27 06:48:27;;;;;;;13.90;8.97;;;9.60;91.80;;;9.81;62.06;94432.53;5001351;28;20450;-57
2021/12/27 06:50:54;;;;;;;17.00;10.33;;;9.80;91.40;;;9.97;61.45;94426.63;5000139;28;20458;-59
2021/12/27 06:53:23;;;;;;;12.33;7.70;;;10.00;90.50;;;10.04;61.32;94421.63;5001455;28;20481;-58
2021/12/27 06:55:52;;;;;;;11.30;7.67;;;10.00;90.20;;;10.08;61.06;94419.53;5004961;28;20455;-59
2021/12/27 06:58:19;;;;;;;15.23;8.50;;;10.10;90.10;;;10.08;60.90;94422.97;5003397;28;20454;-58
2021/12/27 07:00:46;;;;;;;16.87;8.73;;;10.10;90.00;;;10.11;60.79;94421.84;5006131;28;20453;-59
2021/12/27 07:03:14;;;;;;;14.13;9.30;;;10.10;90.00;;;10.09;60.81;94418.56;5003368;28;20469;-58
2021/12/27 07:05:42;;;;;;;15.13;9.63;;;10.10;89.90;;;10.08;60.99;94425.59;5002263;28;20835;-58
2021/12/27 07:08:09;;;;;;;14.03;7.90;;;10.10;89.90;;;10.07;60.90;94417.84;5001317;28;20494;-59
2021/12/27 07:10:37;;;;;;;15.60;8.63;;;10.10;90.00;;;10.10;61.63;94404.41;4995645;28;20447;-57
2021/12/27 07:13:09;;;;;;;13.23;8.30;;;10.10;90.50;;;10.15;61.43;94415.34;4995564;28;20486;-58
2021/12/27 07:15:41;;;;;;;13.43;8.40;;;10.10;90.30;;;10.17;61.16;94408.94;4997667;28;20454;-58
2021/12/27 07:18:09;;;;;;;19.23;8.00;;;10.20;90.20;;;10.19;61.14;94428.03;4994378;28;20603;-58
2021/12/27 07:20:39;;;;;;;15.20;9.00;;;10.20;90.10;;;10.20;61.31;94423.59;5000269;28;20455;-59
2021/12/27 07:23:07;;;;;;;10.93;8.17;;;10.20;90.20;;;10.25;61.29;94433.66;4999001;28;20457;-58
2021/12/27 07:25:34;;;;;;;13.33;8.50;;;10.20;90.20;;;10.23;60.82;94424.13;5001391;28;20533;-59
2021/12/27 07:28:02;;;;;;;16.50;10.60;;;10.20;90.00;;;10.23;60.90;94436.44;5001025;28;20541;-58
2021/12/27 07:30:31;;;;;;;14.40;10.43;;;10.20;89.90;;;10.21;60.90;94415.56;4996868;28;20945;-60
2021/12/27 07:32:58;;;;;;;18.40;10.87;;;10.20;89.80;;;10.20;60.92;94420.97;4996681;28;20592;-58
2021/12/27 07:35:26;;;;;;;17.90;11.10;;;10.20;90.00;;;10.19;61.01;94435.06;4993511;28;20534;-60
2021/12/27 07:37:54;;;;;;;24.97;14.60;;;10.20;90.00;;;10.17;60.93;94422.06;5001037;28;20478;-57
2021/12/27 07:40:21;;;;;;;18.43;12.10;;;10.10;89.90;;;10.16;60.84;94432.75;4993069;28;20877;-58
2021/12/27 07:42:48;;;;;;;21.63;12.70;;;10.10;90.00;;;10.15;60.93;94428.47;5000436;28;20474;-59
2021/12/27 07:45:16;;;;;;;16.60;10.40;;;10.10;90.00;;;10.15;61.26;94412.72;5000066;28;20448;-59
2021/12/27 07:47:44;;;;;;;26.40;10.70;;;10.10;90.00;;;10.16;60.91;94416.97;5001408;28;20474;-58
2021/12/27 07:50:12;;;;;;;17.57;11.60;;;10.10;90.00;;;10.16;61.18;94417.81;5001936;28;20493;-60
2021/12/27 07:52:39;;;;;;;16.13;11.20;;;10.10;90.00;;;10.17;61.24;94418.63;5003503;28;20467;-59
2021/12/27 07:55:07;;;;;;;22.20;12.63;;;10.10;90.10;;;10.18;61.20;94420.28;4999961;28;21048;-59
2021/12/27 07:57:35;;;;;;;17.87;10.40;;;10.10;90.10;;;10.19;61.12;94421.94;4998513;28;20513;-59
2021/12/27 08:00:02;;;;;;;17.40;10.37;;;10.10;90.20;;;10.16;61.07;94414.34;5004324;28;20451;-57
2021/12/27 08:02:29;;;;;;;18.30;11.03;;;10.20;90.10;;;10.14;61.09;94414.50;4993628;28;20470;-59
2021/12/27 08:04:58;;;;;;;12.30;9.20;;;10.10;90.10;;;10.13;61.10;94410.22;4996908;28;20454;-61
2021/12/27 08:07:26;;;;;;;15.20;9.57;;;10.10;90.40;;;10.14;61.21;94411.03;5000798;28;20553;-61
2021/12/27 08:09:53;;;;;;;12.90;9.13;;;10.10;90.10;;;10.12;61.39;94410.38;5002096;28;20453;-58
2021/12/27 08:12:21;;;;;;;16.80;8.80;;;10.10;90.50;;;10.13;61.36;94414.63;5003279;28;20889;-59
2021/12/27 08:14:48;;;;;;;16.10;9.23;;;10.10;90.20;;;10.17;61.31;94408.13;5000473;28;20541;-59
2021/12/27 08:17:16;;;;;;;13.40;8.47;;;10.10;90.20;;;10.21;61.27;94399.78;4999729;28;20553;-61
2021/12/27 08:19:45;;;;;;;20.53;7.30;;;10.10;90.20;;;10.20;61.45;94392.06;4998501;28;20454;-59
2021/12/27 08:22:14;;;;;;;12.80;8.37;;;10.10;90.10;;;10.21;61.16;94402.41;4999188;28;20469;-60
2021/12/27 08:24:42;;;;;;;14.13;9.20;;;10.10;90.20;;;10.24;61.18;94409.19;4994841;28;20643;-62
2021/12/27 08:27:09;;;;;;;23.60;9.00;;;10.20;90.20;;;10.30;61.52;94400.72;4996733;28;20492;-59
2021/12/27 08:29:37;;;;;;;16.33;9.23;;;10.20;90.40;;;10.35;61.44;94402.91;4996320;28;20852;-65
2021/12/27 08:32:05;;;;;;;11.57;8.27;;;10.30;90.30;;;10.41;61.20;94402.31;4999438;28;20474;-59
2021/12/27 08:34:33;;;;;;;9.43;6.90;;;10.40;90.30;;;10.48;60.99;94397.28;5002300;28;20504;-59
2021/12/27 08:37:01;;;;;;;8.67;7.20;;;10.40;90.10;;;10.51;60.77;94389.09;5001927;28;20478;-60
2021/12/27 08:39:30;;;;;;;11.70;8.10;;;10.40;90.00;;;10.51;60.79;94381.19;5002005;28;20457;-57
2021/12/27 08:41:58;;;;;;;19.70;11.00;;;10.50;90.00;;;10.50;60.71;94395.31;4997092;28;20970;-57
2021/12/27 08:44:25;;;;;;;15.23;9.63;;;10.40;89.70;;;10.52;60.95;94390.75;5002086;28;20462;-60
2021/12/27 08:46:53;;;;;;;17.13;11.07;;;10.40;90.00;;;10.54;61.19;94371.19;5002400;28;20485;-59
2021/12/27 08:49:20;;;;;;;13.37;8.80;;;10.50;90.70;;;10.59;61.75;94366.28;4993373;28;20485;-59
2021/12/27 08:51:47;;;;;;;20.93;8.87;;;10.50;90.50;;;10.64;61.03;94368.47;4998325;28;20904;-59
2021/12/27 08:54:15;;;;;;;13.33;9.10;;;10.50;90.10;;;10.71;61.06;94371.34;4995996;28;21113;-58
2021/12/27 08:56:44;;;;;;;10.13;6.73;;;10.60;90.10;;;10.72;60.80;94373.81;5004982;28;20557;-59
2021/12/27 08:59:11;;;;;;;14.50;6.10;;;10.70;90.00;;;10.71;60.88;94350.28;5001797;28;20509;-60
2021/12/27 09:01:38;;;;;;;6.00;4.70;;;10.60;90.00;;;10.71;60.89;94358.19;5002598;28;20489;-59
2021/12/27 09:04:07;;;;;;;7.17;6.00;;;10.70;90.00;;;10.72;60.90;94370.34;5000342;28;20457;-60
2021/12/27 09:06:35;;;;;;;9.40;5.70;;;10.70;90.10;;;10.76;60.69;94350.66;5000434;28;20472;-58
2021/12/27 09:09:02;;;;;;;9.17;6.20;;;10.70;90.00;;;10.82;61.22;94354.47;4995013;28;20486;-59
2021/12/27 09:11:30;;;;;;;12.67;8.07;;;10.80;90.30;;;10.88;60.86;94369.66;4996753;28;20521;-58
2021/12/27 09:13:59;;;;;;;14.40;8.90;;;10.80;90.10;;;10.97;61.08;94350.31;5007185;28;20488;-58
2021/12/27 09:16:27;;;;;;;11.33;7.60;;;10.90;90.30;;;11.04;60.87;94363.66;4996832;28;20476;-58
2021/12/27 09:18:54;;;;;;;20.90;9.87;;;11.00;90.00;;;11.09;60.54;94346.44;5005638;28;20453;-59
2021/12/27 09:21:21;;;;;;;18.33;9.20;;;11.00;89.60;;;11.10;60.27;94316.47;5002475;28;20539;-58
2021/12/27 09:23:49;;;;;;;10.47;6.63;;;11.00;89.10;;;11.15;60.54;94328.34;5003021;28;20458;-59
2021/12/27 09:26:16;;;;;;;11.13;6.87;;;11.10;89.20;;;11.20;59.92;94324.28;5004571;28;20477;-57
2021/12/27 09:28:43;;;;;;;12.80;7.00;;;11.10;89.10;;;11.26;59.65;94317.53;5005537;28;20509;-58
2021/12/27 09:31:12;;;;;;;3.30;2.70;;;11.20;88.80;;;11.35;59.72;94313.97;5000184;28;20483;-61
2021/12/27 09:33:40;;;;;;;31.67;9.47;;;11.20;88.40;;;11.51;60.67;94304.47;4999842;28;20453;-60
2021/12/27 09:36:08;;;;;;;9.57;6.23;;;11.40;90.40;;;11.68;59.88;94290.38;4996114;28;20505;-58
2021/12/27 09:38:35;;;;;;;9.77;4.73;;;11.50;89.60;;;11.80;59.39;94301.44;5003887;28;20455;-58
2021/12/27 09:41:03;;;;;;;8.30;5.33;;;11.70;88.60;;;11.91;59.52;94287.94;4998463;28;20822;-59
2021/12/27 09:43:30;;;;;;;4.53;3.27;;;11.80;88.70;;;12.06;58.93;94279.44;4996803;28;20462;-61
2021/12/27 09:45:57;;;;;;;3.90;3.00;;;11.90;87.60;;;12.16;58.86;94278.28;4999530;28;20511;-62
2021/12/27 09:48:26;;;;;;;5.80;2.70;;;12.00;87.30;;;12.34;58.51;94287.84;5003583;28;20451;-58
2021/12/27 09:50:56;;;;;;;5.00;2.80;;;12.20;87.10;;;12.49;57.78;94299.38;4997888;28;20485;-57
2021/12/27 09:53:23;;;;;;;12.07;5.50;;;12.40;86.30;;;12.63;57.10;94278.63;5005400;28;20454;-59
2021/12/27 09:55:51;;;;;;;14.43;8.43;;;12.50;85.00;;;12.73;57.12;94288.00;5000210;28;20497;-59
2021/12/27 09:58:19;;;;;;;6.23;3.90;;;12.60;84.70;;;12.85;56.97;94271.81;4996629;28;20473;-59
2021/12/27 10:00:46;;;;;;;3.37;3.07;;;12.70;84.70;;;12.96;56.83;94267.97;4993096;28;20458;-59
2021/12/27 10:03:14;;;;;;;5.27;4.00;;;12.80;84.50;;;13.08;56.75;94266.63;5000793;28;20462;-61
2021/12/27 10:05:43;;;;;;;6.67;4.10;;;12.90;84.20;;;13.20;56.43;94278.47;4995723;28;20844;-58
2021/12/27 10:08:10;;;;;;;4.23;2.60;;;13.10;83.70;;;13.30;56.43;94280.91;5004700;28;20469;-59
2021/12/27 10:10:37;;;;;;;2.80;2.10;;;13.10;83.30;;;13.40;55.95;94286.84;4999137;28;20453;-60
2021/12/27 10:13:08;;;;;;;8.00;2.20;;;13.30;83.30;;;13.49;55.52;94271.75;5003216;28;20482;-58
2021/12/27 10:15:37;;;;;;;6.97;3.73;;;13.40;82.60;;;13.56;55.47;94271.91;5003303;28;20485;-59
2021/12/27 10:18:15;;;;;;;6.63;2.70;;;13.40;82.20;;;13.65;54.71;94264.75;5004450;28;20554;-61
2021/12/27 10:20:45;;;;;;;6.33;3.70;;;13.50;81.10;;;13.70;55.03;94270.34;4996971;28;20453;-60